createdAt,value
2019-03-21T00:01:13.459Z,103168.36
2019-03-21T00:03:45.192Z,103168.80
2019-03-21T00:06:16.951Z,103176.89
2019-03-21T00:08:51.826Z,103176.89
2019-03-21T00:12:04.662Z,103174.20
2019-03-21T00:14:59.284Z,103174.30
2019-03-21T00:17:33.825Z,103174.73
2019-03-21T00:20:07.196Z,103171.19
2019-03-21T00:22:40.372Z,103173.38
2019-03-21T00:25:19.834Z,103178.33
2019-03-21T00:27:51.097Z,103183.69
2019-03-21T00:30:23.144Z,103189.52
2019-03-21T00:32:58.460Z,103188.59
2019-03-21T00:35:35.121Z,103188.62
2019-03-21T00:38:06.252Z,103192.66
2019-03-21T00:40:39.427Z,103192.70
2019-03-21T00:43:11.769Z,103190.02
2019-03-21T00:45:42.984Z,103192.27
2019-03-21T00:48:21.460Z,103192.73
2019-03-21T00:50:52.558Z,103195.38
2019-03-21T00:53:23.671Z,103189.55
2019-03-21T00:55:55.052Z,103184.22
2019-03-21T00:58:26.244Z,103191.38
2019-03-21T01:00:57.796Z,103189.09
2019-03-21T01:03:28.908Z,103185.09
2019-03-21T01:06:00.074Z,103178.40
2019-03-21T01:08:42.611Z,103176.21
2019-03-21T01:11:13.901Z,103171.30
2019-03-21T01:13:51.066Z,103178.44
2019-03-21T01:16:22.288Z,103173.95
2019-03-21T01:18:53.415Z,103178.44
2019-03-21T01:21:24.565Z,103178.01
2019-03-21T01:23:55.802Z,103182.05
2019-03-21T01:26:33.956Z,103176.67
2019-03-21T01:29:05.149Z,103169.47
2019-03-21T01:31:36.295Z,103172.28
2019-03-21T01:34:07.427Z,103170.91
2019-03-21T01:36:41.931Z,103170.45
2019-03-21T01:39:38.328Z,103167.80
2019-03-21T01:42:16.407Z,103160.67
2019-03-21T01:44:47.426Z,103163.34
2019-03-21T01:47:18.592Z,103162.01
2019-03-21T01:50:03.178Z,103164.23
2019-03-21T01:52:34.352Z,103166.52
2019-03-21T01:55:06.346Z,103157.12
2019-03-21T01:57:37.479Z,103159.38
2019-03-21T02:00:11.982Z,103163.85
2019-03-21T02:02:43.286Z,103168.80
2019-03-21T02:05:14.437Z,103164.31
2019-03-21T02:07:45.733Z,103156.29
2019-03-21T02:10:18.901Z,103152.73
2019-03-21T02:12:50.111Z,103157.17
2019-03-21T02:15:21.278Z,103160.76
2019-03-21T02:17:52.501Z,103153.58
2019-03-21T02:20:23.610Z,103146.89
2019-03-21T02:22:54.742Z,103143.77
2019-03-21T02:25:27.733Z,103142.00
2019-03-21T02:27:58.962Z,103142.45
2019-03-21T02:30:34.748Z,103138.88
2019-03-21T02:33:12.377Z,103146.03
2019-03-21T02:35:43.499Z,103131.28
2019-03-21T02:38:14.543Z,103133.53
2019-03-21T02:40:47.732Z,103133.49
2019-03-21T02:43:18.950Z,103133.52
2019-03-21T02:45:55.155Z,103137.52
2019-03-21T02:48:26.419Z,103131.71
2019-03-21T02:50:58.605Z,103134.85
2019-03-21T02:53:30.794Z,103134.41
2019-03-21T02:56:02.082Z,103137.10
2019-03-21T02:58:33.175Z,103133.55
2019-03-21T03:01:04.349Z,103128.20
2019-03-21T03:03:35.394Z,103138.92
2019-03-21T03:06:06.725Z,103139.36
2019-03-21T03:08:37.918Z,103134.87
2019-03-21T03:11:10.933Z,103131.75
2019-03-21T03:13:43.249Z,103132.22
2019-03-21T03:16:14.489Z,103136.69
2019-03-21T03:18:46.641Z,103141.17
2019-03-21T03:21:18.707Z,103138.48
2019-03-21T03:23:49.928Z,103144.27
2019-03-21T03:26:25.566Z,103145.17
2019-03-21T03:28:56.607Z,103141.59
2019-03-21T03:31:30.954Z,103141.13
2019-03-21T03:34:02.276Z,103139.37
2019-03-21T03:36:33.650Z,103148.31
2019-03-21T03:39:07.871Z,103142.93
2019-03-21T03:41:46.726Z,103142.93
2019-03-21T03:44:17.982Z,103149.16
2019-03-21T03:46:53.255Z,103150.97
2019-03-21T03:49:24.365Z,103149.20
2019-03-21T03:51:55.568Z,103151.42
2019-03-21T03:54:32.790Z,103152.31
2019-03-21T03:57:04.107Z,103154.09
2019-03-21T03:59:35.306Z,103156.78
2019-03-21T04:02:06.469Z,103160.34
2019-03-21T04:04:37.591Z,103155.45
2019-03-21T04:07:08.719Z,103154.98
2019-03-21T04:09:39.838Z,103158.58
2019-03-21T04:12:11.040Z,103156.33
2019-03-21T04:14:46.091Z,103163.48
2019-03-21T04:17:23.456Z,103156.33
2019-03-21T04:19:54.594Z,103165.25
2019-03-21T04:22:25.812Z,103156.34
2019-03-21T04:24:56.918Z,103156.33
2019-03-21T04:27:42.566Z,103159.91
2019-03-21T04:30:14.551Z,103159.45
2019-03-21T04:33:17.975Z,103160.77
2019-03-21T04:36:08.427Z,103162.12
2019-03-21T04:38:39.678Z,103156.30
2019-03-21T04:41:10.793Z,103162.98
2019-03-21T04:43:52.476Z,103166.12
2019-03-21T04:46:23.559Z,103158.95
2019-03-21T04:49:06.820Z,103165.65
2019-03-21T04:51:38.969Z,103160.33
2019-03-21T04:54:11.160Z,103158.99
2019-03-21T04:56:42.412Z,103160.77
2019-03-21T04:59:19.739Z,103166.60
2019-03-21T05:01:50.888Z,103164.35
2019-03-21T05:04:22.084Z,103160.33
2019-03-21T05:07:08.751Z,103166.17
2019-03-21T05:09:39.904Z,103167.06
2019-03-21T05:12:13.088Z,103164.83
2019-03-21T05:14:44.301Z,103163.50
2019-03-21T05:17:20.866Z,103163.50
2019-03-21T05:19:52.035Z,103164.38
2019-03-21T05:22:23.324Z,103162.13
2019-03-21T05:25:03.290Z,103165.70
2019-03-21T05:27:50.701Z,103162.59
2019-03-21T05:30:37.715Z,103165.27
2019-03-21T05:33:17.841Z,103163.50
2019-03-21T05:36:06.557Z,103165.72
2019-03-21T05:38:37.866Z,103167.94
2019-03-21T05:41:21.050Z,103169.75
2019-03-21T05:43:55.884Z,103168.41
2019-03-21T05:46:27.412Z,103173.30
2019-03-21T05:49:13.466Z,103173.75
2019-03-21T05:51:48.161Z,103178.67
2019-03-21T05:54:19.439Z,103178.64
2019-03-21T05:56:50.639Z,103180.44
2019-03-21T05:59:24.903Z,103181.81
2019-03-21T06:01:58.058Z,103174.66
2019-03-21T06:04:33.189Z,103187.61
2019-03-21T06:07:30.431Z,103190.71
2019-03-21T06:10:02.676Z,103190.27
2019-03-21T06:13:03.996Z,103188.94
2019-03-21T06:15:39.886Z,103195.61
2019-03-21T06:18:47.104Z,103198.72
2019-03-21T06:21:54.663Z,103199.60
2019-03-21T06:24:54.172Z,103200.95
2019-03-21T06:27:40.745Z,103201.80
2019-03-21T06:30:12.297Z,103203.98
2019-03-21T06:32:43.523Z,103205.23
2019-03-21T06:35:22.087Z,103190.36
2019-03-21T06:37:55.251Z,103202.43
2019-03-21T06:40:39.392Z,103202.25
2019-03-21T06:43:21.599Z,103199.31
2019-03-21T06:45:52.754Z,103207.61
2019-03-21T06:48:24.888Z,103211.36
2019-03-21T06:50:56.319Z,103207.25
2019-03-21T06:53:27.603Z,103208.20
2019-03-21T06:56:15.755Z,103215.30
2019-03-21T06:58:49.143Z,103219.06
2019-03-21T07:01:26.445Z,103220.14
2019-03-21T07:04:06.596Z,103221.86
2019-03-21T07:07:08.344Z,103215.09
2019-03-21T07:09:40.196Z,103211.19
2019-03-21T07:12:11.379Z,103213.14
2019-03-21T07:15:05.870Z,103203.82
2019-03-21T07:17:37.011Z,103203.89
2019-03-21T07:20:18.349Z,103200.52
2019-03-21T07:22:49.880Z,103201.29
2019-03-21T07:25:20.991Z,103213.08
2019-03-21T07:27:52.028Z,103210.54
2019-03-21T07:30:23.286Z,103208.92
2019-03-21T07:32:54.414Z,103209.02
2019-03-21T07:35:25.556Z,103206.77
2019-03-21T07:37:56.676Z,103203.25
2019-03-21T07:40:27.971Z,103205.91
2019-03-21T07:42:59.003Z,103206.69
2019-03-21T07:45:30.132Z,103205.45
2019-03-21T07:48:09.331Z,103204.03
2019-03-21T07:50:40.576Z,103195.73
2019-03-21T07:53:11.778Z,103199.42
2019-03-21T07:55:42.932Z,103198.31
2019-03-21T07:58:14.057Z,103198.86
2019-03-21T08:00:45.215Z,103205.08
2019-03-21T08:03:16.358Z,103198.12
2019-03-21T08:05:54.901Z,103202.23
2019-03-21T08:08:26.073Z,103202.26
2019-03-21T08:10:57.229Z,103201.16
2019-03-21T08:13:34.194Z,103203.61
2019-03-21T08:16:08.437Z,103204.06
2019-03-21T08:18:39.543Z,103201.55
2019-03-21T08:21:10.732Z,103202.33
2019-03-21T08:24:00.342Z,103200.70
2019-03-21T08:26:31.574Z,103199.33
2019-03-21T08:29:04.800Z,103205.03
2019-03-21T08:31:35.920Z,103202.91
2019-03-21T08:34:07.062Z,103209.94
2019-03-21T08:36:38.257Z,103210.95
2019-03-21T08:39:31.232Z,103212.75
2019-03-21T08:42:02.480Z,103212.46
2019-03-21T08:44:33.594Z,103211.74
2019-03-21T08:47:04.799Z,103217.69
2019-03-21T08:49:36.019Z,103222.16
2019-03-21T08:52:28.134Z,103217.59
2019-03-21T08:54:59.295Z,103219.37
2019-03-21T08:57:45.074Z,103220.53
2019-03-21T09:00:17.300Z,103217.83
2019-03-21T09:02:48.443Z,103215.91
2019-03-21T09:05:33.840Z,103212.45
2019-03-21T09:08:10.053Z,103208.14
2019-03-21T09:10:41.273Z,103214.05
2019-03-21T09:13:13.603Z,103208.03
2019-03-21T09:15:44.759Z,103214.92
2019-03-21T09:18:15.963Z,103211.22
2019-03-21T09:20:47.230Z,103210.33
2019-03-21T09:23:18.508Z,103210.34
2019-03-21T09:25:55.485Z,103215.47
2019-03-21T09:28:26.730Z,103217.35
2019-03-21T09:30:57.884Z,103214.61
2019-03-21T09:33:29.058Z,103211.34
2019-03-21T09:36:00.164Z,103211.43
2019-03-21T09:38:41.300Z,103213.83
2019-03-21T09:41:12.565Z,103213.16
2019-03-21T09:43:49.939Z,103221.91
2019-03-21T09:46:26.843Z,103215.84
2019-03-21T09:49:17.365Z,103223.78
2019-03-21T09:51:55.314Z,103219.78
2019-03-21T09:54:26.600Z,103214.02
2019-03-21T09:56:57.808Z,103213.79
2019-03-21T09:59:29.232Z,103214.14
2019-03-21T10:02:01.489Z,103206.86
2019-03-21T10:04:43.231Z,103213.06
2019-03-21T10:07:44.141Z,103207.92
2019-03-21T10:10:29.493Z,103206.20
2019-03-21T10:13:06.117Z,103204.48
2019-03-21T10:15:37.293Z,103201.50
2019-03-21T10:18:08.485Z,103205.27
2019-03-21T10:20:57.720Z,103205.27
2019-03-21T10:23:30.973Z,103200.60
2019-03-21T10:26:02.302Z,103192.58
2019-03-21T10:28:33.618Z,103204.14
2019-03-21T10:31:08.945Z,103198.02
2019-03-21T10:33:40.126Z,103203.54
2019-03-21T10:36:11.329Z,103196.89
2019-03-21T10:38:42.555Z,103194.55
2019-03-21T10:41:13.657Z,103193.28
2019-03-21T10:44:08.638Z,103194.38
2019-03-21T10:46:39.863Z,103189.37
2019-03-21T10:49:11.156Z,103190.14
2019-03-21T10:51:56.613Z,103185.42
2019-03-21T10:54:33.450Z,103184.95
2019-03-21T10:57:05.692Z,103188.02
2019-03-21T10:59:37.055Z,103189.88
2019-03-21T11:02:08.230Z,103189.37
2019-03-21T11:04:39.492Z,103192.37
2019-03-21T11:07:13.680Z,103187.16
2019-03-21T11:09:44.868Z,103193.54
2019-03-21T11:12:18.002Z,103191.83
2019-03-21T11:14:49.224Z,103186.38
2019-03-21T11:17:22.362Z,103187.61
2019-03-21T11:19:54.529Z,103186.69
2019-03-21T11:22:25.658Z,103184.78
2019-03-21T11:24:56.969Z,103172.93
2019-03-21T11:27:33.878Z,103174.27
2019-03-21T11:30:15.702Z,103178.78
2019-03-21T11:32:40.621Z,103169.41
2019-03-21T11:35:14.020Z,103159.96
2019-03-21T11:37:45.159Z,103170.88
2019-03-21T11:40:18.212Z,103170.06
2019-03-21T11:42:49.446Z,103169.52
2019-03-21T11:45:24.105Z,103165.41
2019-03-21T11:48:19.243Z,103160.77
2019-03-21T11:50:59.115Z,103160.94
2019-03-21T11:53:30.299Z,103163.29
2019-03-21T11:56:01.610Z,103154.34
2019-03-21T11:58:32.747Z,103149.09
2019-03-21T12:01:03.954Z,103149.75
2019-03-21T12:04:02.270Z,103146.30
2019-03-21T12:06:33.762Z,103149.45
2019-03-21T12:09:07.179Z,103153.41
2019-03-21T12:11:45.656Z,103135.95
2019-03-21T12:14:24.706Z,103136.94
2019-03-21T12:16:56.143Z,103141.66
2019-03-21T12:19:27.489Z,103138.80
2019-03-21T12:22:02.277Z,103128.91
2019-03-21T12:24:42.534Z,103119.56
2019-03-21T12:27:37.621Z,103119.20
2019-03-21T12:30:10.942Z,103116.26
2019-03-21T12:32:42.119Z,103112.97
2019-03-21T12:35:13.387Z,103110.58
2019-03-21T12:37:45.588Z,103107.66
2019-03-21T12:40:24.262Z,103101.27
2019-03-21T12:43:05.065Z,103103.47
2019-03-21T12:45:49.943Z,103107.30
2019-03-21T12:48:23.022Z,103103.06
2019-03-21T12:51:04.622Z,103095.55
2019-03-21T12:54:05.776Z,103091.69
2019-03-21T12:56:48.145Z,103088.53
2019-03-21T12:59:19.316Z,103092.02
2019-03-21T13:01:50.561Z,103080.20
2019-03-21T13:04:36.544Z,103080.83
2019-03-21T13:07:17.312Z,103075.31
2019-03-21T13:09:48.617Z,103073.02
2019-03-21T13:12:19.813Z,103074.94
2019-03-21T13:14:51.801Z,103074.86
2019-03-21T13:17:24.357Z,103069.01
2019-03-21T13:19:55.689Z,103067.73
2019-03-21T13:22:31.400Z,103067.92
2019-03-21T13:25:08.127Z,103059.06
2019-03-21T13:27:45.032Z,103061.79
2019-03-21T13:30:16.631Z,103055.09
2019-03-21T13:32:49.857Z,103057.19
2019-03-21T13:35:32.117Z,103047.66
2019-03-21T13:37:54.518Z,103048.61
2019-03-21T13:40:26.080Z,103049.71
2019-03-21T13:43:01.701Z,103048.45
2019-03-21T13:45:33.615Z,103044.50
2019-03-21T13:48:06.452Z,103036.84
2019-03-21T13:51:08.819Z,103036.19
2019-03-21T13:53:58.645Z,103033.23
2019-03-21T13:56:37.930Z,103028.01
2019-03-21T13:59:03.053Z,103026.97
2019-03-21T14:01:35.353Z,103026.46
2019-03-21T14:04:12.742Z,103024.62
2019-03-21T14:06:57.379Z,103019.17
2019-03-21T14:09:29.058Z,103016.12
2019-03-21T14:12:00.537Z,103020.08
2019-03-21T14:14:31.806Z,103012.66
2019-03-21T14:17:05.077Z,103008.93
2019-03-21T14:19:36.463Z,103008.80
2019-03-21T14:22:23.866Z,103004.44
2019-03-21T14:24:58.725Z,103002.48
2019-03-21T14:27:30.295Z,103002.33
2019-03-21T14:30:03.668Z,103001.83
2019-03-21T14:32:36.024Z,103000.24
2019-03-21T14:35:08.102Z,102994.34
2019-03-21T14:37:39.415Z,102997.98
2019-03-21T14:40:14.735Z,102998.06
2019-03-21T14:42:46.498Z,102997.36
2019-03-21T14:45:45.593Z,102993.73
2019-03-21T14:51:32.291Z,102988.30
2019-03-21T14:54:14.844Z,102987.52
2019-03-21T14:56:51.920Z,102986.06
2019-03-21T14:59:23.511Z,102977.21
2019-03-21T15:02:29.501Z,102976.50
2019-03-21T15:05:07.077Z,102971.91
2019-03-21T15:07:44.046Z,102977.36
2019-03-21T15:10:17.651Z,102973.14
2019-03-21T15:12:49.352Z,102966.73
2019-03-21T15:15:23.807Z,102966.98
2019-03-21T15:17:58.530Z,102966.73
2019-03-21T15:20:28.987Z,102965.84
2019-03-21T15:23:01.146Z,102955.82
2019-03-21T15:25:42.415Z,102960.57
2019-03-21T15:28:13.472Z,102958.48
2019-03-21T15:30:51.539Z,102957.98
2019-03-21T15:33:26.637Z,102952.54
2019-03-21T15:36:04.790Z,102953.52
2019-03-21T15:38:36.042Z,102950.60
2019-03-21T15:41:07.205Z,102951.49
2019-03-21T15:43:46.329Z,102949.11
2019-03-21T15:46:17.510Z,102955.27
2019-03-21T15:49:12.749Z,102951.80
2019-03-21T15:51:43.865Z,102949.97
2019-03-21T15:55:03.095Z,102946.52
2019-03-21T15:57:34.311Z,102945.23
2019-03-21T16:00:07.688Z,102960.36
2019-03-21T16:02:52.087Z,102950.06
2019-03-21T16:05:23.400Z,102949.16
2019-03-21T16:08:00.717Z,102949.33
2019-03-21T16:10:33.880Z,102943.86
2019-03-21T16:13:05.297Z,102940.00
2019-03-21T16:15:42.087Z,102943.19
2019-03-21T16:18:33.933Z,102940.08
2019-03-21T16:21:06.175Z,102943.86
2019-03-21T16:23:37.571Z,102935.36
2019-03-21T16:26:08.853Z,102933.75
2019-03-21T16:28:53.299Z,102936.89
2019-03-21T16:31:25.685Z,102934.16
2019-03-21T16:34:04.978Z,102930.47
2019-03-21T16:36:45.456Z,102936.09
2019-03-21T16:39:16.619Z,102937.69
2019-03-21T16:41:47.806Z,102941.78
2019-03-21T16:44:18.984Z,102944.55
2019-03-21T16:47:13.917Z,102942.61
2019-03-21T16:49:55.493Z,102939.61
2019-03-21T16:52:54.457Z,102937.86
2019-03-21T16:55:27.734Z,102933.11
2019-03-21T16:58:02.029Z,102933.58
2019-03-21T17:00:46.588Z,102931.66
2019-03-21T17:03:22.874Z,102924.86
2019-03-21T17:06:15.777Z,102923.63
2019-03-21T17:08:47.015Z,102924.58
2019-03-21T17:11:25.558Z,102931.13
2019-03-21T17:13:56.711Z,102932.69
2019-03-21T17:16:28.927Z,102929.13
2019-03-21T17:19:07.771Z,102925.65
2019-03-21T17:21:39.026Z,102928.20
2019-03-21T17:24:28.450Z,102931.47
2019-03-21T17:26:49.293Z,102932.36
2019-03-21T17:29:20.476Z,102940.31
2019-03-21T17:31:57.525Z,102944.64
2019-03-21T17:34:29.723Z,102946.86
2019-03-21T17:37:00.868Z,102940.81
2019-03-21T17:39:35.275Z,102945.73
2019-03-21T17:42:07.535Z,102939.43
2019-03-21T17:44:41.318Z,102941.42
2019-03-21T17:47:12.569Z,102934.48
2019-03-21T17:49:43.840Z,102934.77
2019-03-21T17:52:25.441Z,102937.22
2019-03-21T17:54:59.942Z,102935.25
2019-03-21T17:57:58.896Z,102940.89
2019-03-21T18:00:31.764Z,102948.30
2019-03-21T18:03:05.339Z,102952.20
2019-03-21T18:05:57.472Z,102950.38
2019-03-21T18:08:31.800Z,102953.13
2019-03-21T18:11:05.036Z,102953.90
2019-03-21T18:13:40.951Z,102957.35
2019-03-21T18:16:12.169Z,102960.38
2019-03-21T18:18:43.436Z,102952.95
2019-03-21T18:21:15.569Z,102953.83
2019-03-21T18:23:46.796Z,102960.69
2019-03-21T18:26:25.319Z,102962.70
2019-03-21T18:29:07.608Z,102965.31
2019-03-21T18:31:38.908Z,102973.56
2019-03-21T18:34:23.377Z,102969.28
2019-03-21T18:36:58.305Z,102969.53
2019-03-21T18:39:50.674Z,102969.24
2019-03-21T18:42:23.830Z,102967.49
2019-03-21T18:44:56.509Z,102968.59
2019-03-21T18:47:35.718Z,102975.69
2019-03-21T18:50:09.330Z,102970.97
2019-03-21T18:53:00.508Z,102975.14
2019-03-21T18:55:35.050Z,102977.93
2019-03-21T18:58:06.283Z,102976.34
2019-03-21T19:00:37.625Z,102985.53
2019-03-21T19:03:09.107Z,102980.34
2019-03-21T19:05:40.324Z,102983.05
2019-03-21T19:08:27.344Z,102982.85
2019-03-21T19:10:58.957Z,102984.80
2019-03-21T19:13:33.160Z,102979.61
2019-03-21T19:16:06.608Z,102984.75
2019-03-21T19:18:47.030Z,102986.33
2019-03-21T19:21:19.181Z,102978.42
2019-03-21T19:23:50.388Z,102974.22
2019-03-21T19:26:21.683Z,102982.03
2019-03-21T19:29:06.452Z,102982.19
2019-03-21T19:31:37.690Z,102980.52
2019-03-21T19:34:08.852Z,102983.53
2019-03-21T19:36:50.205Z,102984.58
2019-03-21T19:39:21.583Z,102986.23
2019-03-21T19:41:53.802Z,102986.28
2019-03-21T19:44:25.019Z,102989.20
2019-03-21T19:46:56.245Z,102987.39
2019-03-21T19:49:34.987Z,102988.80
2019-03-21T19:52:21.304Z,102982.06
2019-03-21T19:54:52.532Z,102987.73
2019-03-21T19:57:23.789Z,102987.36
2019-03-21T20:00:07.842Z,102996.89
2019-03-21T20:02:45.076Z,102995.10
2019-03-21T20:05:16.417Z,102991.19
2019-03-21T20:07:50.541Z,102993.58
2019-03-21T20:10:32.887Z,102996.39
2019-03-21T20:13:04.377Z,102989.80
2019-03-21T20:15:36.585Z,102990.63
2019-03-21T20:18:07.929Z,102991.66
2019-03-21T20:20:47.131Z,102985.90
2019-03-21T20:23:18.414Z,102984.34
2019-03-21T20:25:49.649Z,102989.77
2019-03-21T20:28:20.930Z,102990.34
2019-03-21T20:30:52.144Z,102987.56
2019-03-21T20:33:23.442Z,102974.23
2019-03-21T20:35:54.755Z,102971.73
2019-03-21T20:38:26.020Z,102971.80
2019-03-21T20:40:57.357Z,102980.55
2019-03-21T20:43:28.779Z,102974.25
2019-03-21T20:46:01.014Z,102976.55
2019-03-21T20:48:30.366Z,102974.44
2019-03-21T20:51:01.611Z,102983.13
2019-03-21T20:53:34.874Z,102982.91
2019-03-21T20:56:11.670Z,102984.77
2019-03-21T20:58:46.124Z,102987.17
2019-03-21T21:01:17.246Z,102975.13
2019-03-21T21:03:54.982Z,102976.08
2019-03-21T21:06:29.590Z,102975.57
2019-03-21T21:09:03.321Z,102970.73
2019-03-21T21:11:56.433Z,102971.19
2019-03-21T21:14:54.587Z,102973.61
2019-03-21T21:17:26.855Z,102967.89
2019-03-21T21:19:59.140Z,102972.19
2019-03-21T21:22:34.287Z,102972.29
2019-03-21T21:25:07.183Z,102966.05
2019-03-21T21:27:49.563Z,102967.52
2019-03-21T21:30:17.037Z,102955.81
2019-03-21T21:32:49.428Z,102959.88
2019-03-21T21:35:26.806Z,102956.33
2019-03-21T21:38:03.535Z,102953.84
2019-03-21T21:40:34.755Z,102960.11
2019-03-21T21:43:06.162Z,102958.76
2019-03-21T21:45:51.660Z,102960.44
2019-03-21T21:48:22.714Z,102958.20
2019-03-21T21:50:53.932Z,102955.50
2019-03-21T21:53:26.137Z,102960.20
2019-03-21T21:55:57.355Z,102962.28
2019-03-21T21:58:29.220Z,102966.22
2019-03-21T22:01:02.560Z,102968.48
2019-03-21T22:03:33.762Z,102968.07
2019-03-21T22:06:06.291Z,102969.44
2019-03-21T22:08:52.749Z,102968.09
2019-03-21T22:11:29.015Z,102961.83
2019-03-21T22:14:14.157Z,102956.44
2019-03-21T22:16:45.788Z,102955.25
2019-03-21T22:19:17.386Z,102955.34
2019-03-21T22:21:55.315Z,102959.48
2019-03-21T22:24:26.385Z,102951.53
2019-03-21T22:26:57.744Z,102957.39
2019-03-21T22:29:30.057Z,102956.09
2019-03-21T22:32:03.214Z,102955.69
2019-03-21T22:34:34.630Z,102950.80
2019-03-21T22:37:06.240Z,102956.41
2019-03-21T22:39:38.062Z,102957.69
2019-03-21T22:42:09.866Z,102951.05
2019-03-21T22:44:44.444Z,102943.97
2019-03-21T22:47:21.856Z,102950.86
2019-03-21T22:49:53.712Z,102946.41
2019-03-21T22:52:45.589Z,102942.81
2019-03-21T22:55:21.307Z,102940.27
2019-03-21T22:57:55.844Z,102938.87
2019-03-21T23:00:43.378Z,102940.42
2019-03-21T23:03:16.352Z,102935.88
2019-03-21T23:05:48.559Z,102939.52
2019-03-21T23:08:19.796Z,102930.19
2019-03-21T23:10:57.937Z,102932.42
2019-03-21T23:13:34.037Z,102937.34
2019-03-21T23:16:05.359Z,102932.57
2019-03-21T23:18:39.585Z,102929.58
2019-03-21T23:21:28.892Z,102935.01
2019-03-21T23:24:04.799Z,102933.67
2019-03-21T23:26:37.064Z,102933.40
2019-03-21T23:29:15.308Z,102937.00
2019-03-21T23:32:00.138Z,102931.21
2019-03-21T23:34:31.388Z,102927.16
2019-03-21T23:37:12.682Z,102921.87
2019-03-21T23:39:44.848Z,102925.69
2019-03-21T23:42:42.932Z,102921.20
2019-03-21T23:45:14.421Z,102922.09
2019-03-21T23:47:45.694Z,102912.94
2019-03-21T23:50:17.093Z,102909.89
2019-03-21T23:52:48.597Z,102902.61
2019-03-21T23:55:20.072Z,102909.30
2019-03-21T23:57:52.307Z,102903.15
